Time;durP1;ratioP1;P1;durP2;ratioP2;P2;SDS_P1;SDS_P2;PMS_P1;PMS_P2;Temp;Humidity;BMP_temperature;BMP_pressure;BME280_temperature;BME280_humidity;BME280_pressure;Samples;Min_cycle;Max_cycle;Signal;HPM_P1;HPM_P2
2022/01/19 00:00:27;;;;;;;15.50;5.90;;;2.50;84.10;;;;;;5074087;28;20458;-66
2022/01/19 00:02:53;;;;;;;13.57;5.53;;;2.50;84.00;;;;;;5073063;28;20025;-67
2022/01/19 00:05:19;;;;;;;16.02;6.38;;;2.50;84.30;;;;;;5073775;28;20039;-66
2022/01/19 00:07:44;;;;;;;15.48;5.97;;;2.50;84.90;;;;;;5073709;28;20469;-66
2022/01/19 00:10:12;;;;;;;15.63;5.70;;;2.50;85.00;;;;;;5073380;28;20473;-66
2022/01/19 00:12:38;;;;;;;16.52;5.40;;;2.50;85.10;;;;;;5073921;28;20029;-66
2022/01/19 00:15:07;;;;;;;18.17;5.57;;;2.50;85.50;;;;;;5073285;28;20024;-65
2022/01/19 00:17:32;;;;;;;19.98;6.25;;;2.50;85.50;;;;;;5073674;28;20029;-66
2022/01/19 00:19:58;;;;;;;14.25;5.47;;;2.50;85.70;;;;;;5073137;28;20035;-66
2022/01/19 00:22:24;;;;;;;13.07;5.50;;;2.50;85.80;;;;;;5073880;28;20028;-66
2022/01/19 00:24:49;;;;;;;12.27;5.20;;;2.40;86.00;;;;;;5073032;28;20028;-66
2022/01/19 00:27:15;;;;;;;20.02;6.40;;;2.40;86.20;;;;;;5073555;28;20033;-66
2022/01/19 00:29:41;;;;;;;14.35;5.53;;;2.50;86.30;;;;;;5073518;28;20043;-66
2022/01/19 00:32:06;;;;;;;19.08;5.80;;;2.50;86.20;;;;;;5072971;28;20032;-66
2022/01/19 00:34:32;;;;;;;16.17;6.03;;;2.40;86.10;;;;;;5073749;28;20029;-66
2022/01/19 00:36:58;;;;;;;17.30;6.00;;;2.40;86.40;;;;;;5072965;28;20134;-66
2022/01/19 00:39:29;;;;;;;13.40;5.55;;;2.40;86.50;;;;;;5073212;28;20052;-67
2022/01/19 00:41:56;;;;;;;16.92;6.22;;;2.40;86.80;;;;;;5072336;28;20493;-66
2022/01/19 00:44:21;;;;;;;17.45;5.88;;;2.40;86.80;;;;;;5073424;28;20372;-66
2022/01/19 00:46:47;;;;;;;16.48;5.90;;;2.30;86.90;;;;;;5073170;28;20021;-66
2022/01/19 00:49:13;;;;;;;14.77;5.93;;;2.30;87.40;;;;;;5054657;28;20020;-67
2022/01/19 00:51:38;;;;;;;15.30;5.35;;;2.30;87.90;;;;;;5073170;28;20028;-66
2022/01/19 00:54:04;;;;;;;14.38;6.03;;;2.30;88.10;;;;;;5072523;28;20024;-66
2022/01/19 00:56:30;;;;;;;15.88;5.68;;;2.30;87.80;;;;;;5073067;28;20045;-66
2022/01/19 00:58:55;;;;;;;17.15;5.80;;;2.30;87.80;;;;;;5072159;28;20025;-66
2022/01/19 01:01:21;;;;;;;13.45;5.50;;;2.30;88.00;;;;;;5072854;28;20556;-66
2022/01/19 01:03:47;;;;;;;16.08;5.20;;;2.30;88.30;;;;;;5072890;28;20028;-66
2022/01/19 01:06:14;;;;;;;16.20;5.93;;;2.30;88.30;;;;;;5054380;28;20032;-66
2022/01/19 01:08:39;;;;;;;16.65;6.28;;;2.20;88.20;;;;;;5073177;28;20032;-66
2022/01/19 01:11:05;;;;;;;18.70;5.80;;;2.20;88.00;;;;;;5072211;28;20027;-66
2022/01/19 01:15:26;;;;;;;15.18;5.10;;;2.20;88.90;;;;;;5073044;28;20024;-65
2022/01/19 01:16:31;;;;;;;16.58;6.35;;;2.20;88.90;;;;;;5072135;28;20131;-66
2022/01/19 01:18:57;;;;;;;18.05;5.65;;;2.20;89.10;;;;;;5072050;28;20454;-66
2022/01/19 01:21:22;;;;;;;13.50;5.10;;;2.20;89.20;;;;;;5072615;28;20070;-66
2022/01/19 01:24:07;;;;;;;21.30;5.93;;;2.10;90.00;;;;;;5072592;28;20392;-66
2022/01/19 01:26:33;;;;;;;15.68;5.07;;;2.10;89.60;;;;;;5072652;28;20028;-66
2022/01/19 01:28:58;;;;;;;19.05;5.57;;;2.10;89.70;;;;;;5071971;28;20021;-65
2022/01/19 01:31:24;;;;;;;14.48;6.55;;;2.10;89.70;;;;;;5072500;28;20450;-65
2022/01/19 01:33:50;;;;;;;11.82;5.57;;;2.00;89.80;;;;;;5072451;28;20104;-65
2022/01/19 01:36:16;;;;;;;15.38;5.80;;;2.00;90.00;;;;;;5053652;28;20033;-65
2022/01/19 01:38:41;;;;;;;12.95;5.60;;;2.00;90.10;;;;;;5072480;28;20078;-65
2022/01/19 01:41:12;;;;;;;18.08;6.18;;;2.00;90.20;;;;;;5071661;28;20393;-66
2022/01/19 01:43:38;;;;;;;15.38;5.68;;;2.00;90.30;;;;;;5071505;28;20032;-67
2022/01/19 01:46:11;;;;;;;18.17;6.25;;;1.90;90.50;;;;;;5071564;28;20533;-65
2022/01/19 01:48:42;;;;;;;13.57;5.22;;;2.00;90.70;;;;;;5071977;28;20020;-65
2022/01/19 01:53:57;;;;;;;13.77;5.05;;;1.90;90.90;;;;;;5071801;28;20524;-65
2022/01/19 01:56:23;;;;;;;15.35;6.18;;;1.90;90.90;;;;;;5072160;28;20393;-66
2022/01/19 01:58:49;;;;;;;20.42;6.18;;;2.00;90.90;;;;;;5072140;28;20024;-65
2022/01/19 02:01:17;;;;;;;21.30;6.90;;;2.00;90.90;;;;;;5071236;28;20017;-65
2022/01/19 02:03:44;;;;;;;15.00;6.25;;;2.00;91.00;;;;;;5071568;28;20076;-66
2022/01/19 02:08:52;;;;;;;16.00;5.30;;;2.00;91.00;;;;;;5072041;28;20373;-65
2022/01/19 02:25:52;;;;;;;14.55;5.63;;;2.00;91.00;;;;;;5071677;28;20104;-65
2022/01/19 02:42:02;;;;;;;18.65;5.32;;;2.10;91.20;;;;;;5071191;28;20222;-66
2022/01/19 02:49:54;;;;;;;22.55;5.25;;;2.00;91.20;;;;;;5071616;28;20082;-65
2022/01/19 02:52:22;;;;;;;11.75;4.70;;;2.10;91.20;;;;;;5071209;28;20396;-66
2022/01/19 02:54:49;;;;;;;16.63;5.00;;;2.10;91.30;;;;;;5073231;28;20389;-65
2022/01/19 02:57:15;;;;;;;20.25;5.30;;;2.10;91.30;;;;;;5074759;28;20485;-65
2022/01/19 03:10:28;;;;;;;14.60;5.97;;;2.10;91.30;;;;;;5075050;28;20040;-66
2022/01/19 03:12:53;;;;;;;19.13;6.65;;;2.00;91.10;;;;;;5075165;28;20028;-65
2022/01/19 03:15:19;;;;;;;14.25;5.32;;;2.00;91.00;;;;;;5074828;28;20036;-66
2022/01/19 03:17:45;;;;;;;17.13;6.22;;;1.90;90.90;;;;;;5075024;28;20037;-65
2022/01/19 03:20:12;;;;;;;18.42;5.75;;;1.90;91.40;;;;;;5074590;28;20370;-65
2022/01/19 03:25:23;;;;;;;19.30;5.78;;;1.80;91.60;;;;;;5075025;28;20040;-65
2022/01/19 03:27:49;;;;;;;14.85;4.97;;;1.80;91.80;;;;;;5074781;28;20020;-65
2022/01/19 03:30:16;;;;;;;17.30;5.50;;;1.80;92.00;;;;;;5074617;28;20036;-65
2022/01/19 03:32:42;;;;;;;15.05;5.47;;;1.80;91.90;;;;;;5074501;28;20027;-65
2022/01/19 03:35:09;;;;;;;16.98;5.57;;;1.80;92.30;;;;;;5074450;28;20032;-66
2022/01/19 03:37:35;;;;;;;17.60;5.85;;;1.70;92.30;;;;;;5074691;28;20041;-66
2022/01/19 03:40:03;;;;;;;16.73;5.63;;;1.70;92.50;;;;;;5073911;28;20420;-66
2022/01/19 03:42:28;;;;;;;13.13;5.38;;;1.70;92.70;;;;;;5074554;28;20098;-66
2022/01/19 03:44:54;;;;;;;16.75;5.28;;;1.70;92.60;;;;;;5074192;28;20021;-66
2022/01/19 03:47:20;;;;;;;15.70;5.47;;;1.70;92.70;;;;;;5073943;28;20039;-66
2022/01/19 03:49:46;;;;;;;13.85;4.97;;;1.70;92.90;;;;;;5074093;28;20040;-66
2022/01/19 03:52:11;;;;;;;16.52;5.38;;;1.70;93.00;;;;;;5074141;28;20050;-65
2022/01/19 03:54:40;;;;;;;14.15;4.88;;;1.70;93.10;;;;;;5074207;28;20028;-65
2022/01/19 03:57:06;;;;;;;13.32;4.90;;;1.70;93.10;;;;;;5055729;28;20412;-65
2022/01/19 03:59:32;;;;;;;15.32;5.80;;;1.80;93.20;;;;;;5074125;28;20028;-65
2022/01/19 04:01:58;;;;;;;21.98;5.85;;;1.70;93.00;;;;;;5074028;28;20048;-64
2022/01/19 04:07:08;;;;;;;11.10;5.15;;;1.80;93.00;;;;;;5072890;28;20044;-65
2022/01/19 04:09:37;;;;;;;13.90;4.70;;;1.80;92.80;;;;;;5073686;28;20032;-65
2022/01/19 04:12:04;;;;;;;17.52;5.43;;;1.70;92.90;;;;;;5073052;28;20166;-65
2022/01/19 04:14:30;;;;;;;15.02;5.57;;;1.80;92.90;;;;;;5073676;28;20029;-65
2022/01/19 04:16:57;;;;;;;13.77;4.70;;;1.80;92.90;;;;;;5073516;28;20044;-65
2022/01/19 04:19:28;;;;;;;16.13;5.47;;;1.80;93.10;;;;;;5073491;28;20020;-65
2022/01/19 04:21:56;;;;;;;20.33;7.00;;;1.80;92.90;;;;;;5073218;28;20457;-65
2022/01/19 04:24:23;;;;;;;23.25;7.93;;;1.70;92.80;;;;;;5054570;28;20036;-65
2022/01/19 04:26:58;;;;;;;16.58;7.28;;;1.70;92.80;;;;;;5073305;28;20029;-65
2022/01/19 04:29:24;;;;;;;17.20;6.90;;;1.70;92.80;;;;;;5073094;28;20033;-65
2022/01/19 04:31:50;;;;;;;17.83;5.75;;;1.70;92.70;;;;;;5073480;28;20110;-65
2022/01/19 04:34:18;;;;;;;16.02;6.20;;;1.70;92.70;;;;;;5072443;28;20059;-65
2022/01/19 04:43:51;;;;;;;22.85;5.78;;;1.60;92.80;;;;;;5073055;28;20560;-65
2022/01/19 05:06:41;;;;;;;20.25;5.85;;;1.40;93.90;;;;;;5072937;28;20468;-66
2022/01/19 05:09:12;;;;;;;16.20;5.32;;;1.40;93.90;;;;;;5072383;28;20029;-66
2022/01/19 05:14:22;;;;;;;18.55;6.63;;;1.40;94.20;;;;;;5071874;28;20051;-65
2022/01/19 05:16:47;;;;;;;16.80;6.40;;;1.40;94.40;;;;;;5072465;28;20028;-64
2022/01/19 05:19:13;;;;;;;17.92;6.43;;;1.30;94.20;;;;;;5071943;28;20134;-65
2022/01/19 05:21:39;;;;;;;14.35;6.10;;;1.30;94.50;;;;;;5054655;28;20028;-65
2022/01/19 05:24:07;;;;;;;17.42;6.22;;;1.30;94.40;;;;;;5072118;28;20099;-65
2022/01/19 05:26:35;;;;;;;16.23;6.10;;;1.30;94.70;;;;;;5072305;28;20105;-65
2022/01/19 05:29:01;;;;;;;18.40;6.00;;;1.30;95.00;;;;;;5072328;28;20020;-66
2022/01/19 05:31:26;;;;;;;22.08;6.30;;;1.30;95.00;;;;;;5072345;28;20051;-67
2022/01/19 05:34:11;;;;;;;17.88;6.43;;;1.30;95.10;;;;;;5054722;28;20108;-67
2022/01/19 05:36:37;;;;;;;12.65;5.85;;;1.20;94.90;;;;;;5072400;28;20036;-65
2022/01/19 05:39:05;;;;;;;17.63;6.88;;;1.20;95.20;;;;;;5053903;28;20043;-65
2022/01/19 05:41:34;;;;;;;18.10;7.22;;;1.20;95.30;;;;;;5072469;28;20025;-65
2022/01/19 05:43:59;;;;;;;17.60;6.47;;;1.20;95.20;;;;;;5072592;28;20029;-65
2022/01/19 05:46:25;;;;;;;18.15;7.13;;;1.20;95.50;;;;;;5071912;28;20435;-66
2022/01/19 05:48:51;;;;;;;18.33;7.07;;;1.20;95.60;;;;;;5072546;28;20024;-65
2022/01/19 05:51:17;;;;;;;20.85;7.53;;;1.20;95.40;;;;;;5071843;28;20029;-66
2022/01/19 05:53:43;;;;;;;19.35;7.60;;;1.20;95.30;;;;;;5072323;28;20077;-65
2022/01/19 05:56:09;;;;;;;16.77;6.25;;;1.20;95.50;;;;;;5071357;28;20056;-66
2022/01/19 05:58:35;;;;;;;19.55;6.80;;;1.20;95.60;;;;;;5071995;28;20469;-66
2022/01/19 06:01:01;;;;;;;15.88;6.28;;;1.20;95.70;;;;;;5072022;28;20051;-66
2022/01/19 06:03:27;;;;;;;17.73;6.80;;;1.20;95.60;;;;;;5071814;28;20021;-66
2022/01/19 06:05:53;;;;;;;21.92;7.43;;;1.20;95.80;;;;;;5054328;28;20032;-66
2022/01/19 06:10:54;;;;;;;15.43;7.32;;;1.10;95.60;;;;;;5072150;28;20552;-65
2022/01/19 06:13:21;;;;;;;20.43;6.50;;;1.10;95.80;;;;;;5071695;28;20389;-66
2022/01/19 06:15:48;;;;;;;23.10;7.32;;;1.10;95.80;;;;;;5072131;28;20086;-66
2022/01/19 06:18:15;;;;;;;21.58;7.85;;;1.10;96.20;;;;;;5071647;28;20047;-66
2022/01/19 06:20:41;;;;;;;19.40;6.38;;;1.10;96.20;;;;;;5071910;28;20059;-66
2022/01/19 06:23:07;;;;;;;16.63;7.18;;;1.10;96.30;;;;;;5071197;28;20029;-66
2022/01/19 06:25:33;;;;;;;24.05;7.35;;;1.10;96.30;;;;;;5072249;28;20024;-66
2022/01/19 06:27:59;;;;;;;20.55;9.20;;;1.10;96.50;;;;;;5072148;28;20155;-66
2022/01/19 06:30:25;;;;;;;20.83;7.05;;;1.10;96.20;;;;;;5074854;28;20075;-65
2022/01/19 06:32:51;;;;;;;21.73;7.75;;;1.00;96.50;;;;;;5075814;28;20465;-65
2022/01/19 06:35:17;;;;;;;25.10;7.18;;;1.00;96.60;;;;;;5075544;28;20028;-66
2022/01/19 06:37:43;;;;;;;20.92;7.45;;;1.00;96.80;;;;;;5075848;28;20024;-66
2022/01/19 06:40:11;;;;;;;21.73;8.95;;;1.00;96.70;;;;;;5075235;28;20094;-65
2022/01/19 06:42:37;;;;;;;27.23;8.55;;;1.10;96.90;;;;;;5075772;28;20052;-66
2022/01/19 06:45:04;;;;;;;19.63;9.23;;;1.00;96.70;;;;;;5076080;28;20039;-66
2022/01/19 06:47:30;;;;;;;23.20;8.52;;;1.00;97.00;;;;;;5075261;28;20040;-66
2022/01/19 06:49:55;;;;;;;24.17;8.57;;;1.00;97.30;;;;;;5075445;28;20031;-66
2022/01/19 06:52:21;;;;;;;23.20;8.80;;;1.00;97.30;;;;;;5075249;28;20111;-66
2022/01/19 06:54:47;;;;;;;19.10;8.77;;;1.00;97.50;;;;;;5075172;28;20192;-65
2022/01/19 06:57:12;;;;;;;18.95;9.60;;;1.00;97.50;;;;;;5075160;28;20037;-65
2022/01/19 06:59:39;;;;;;;22.17;9.20;;;1.00;97.50;;;;;;5075182;28;20044;-66
2022/01/19 07:02:05;;;;;;;23.48;9.35;;;1.00;97.50;;;;;;5075415;28;20028;-66
2022/01/19 07:04:30;;;;;;;28.70;9.55;;;1.00;97.50;;;;;;5074940;28;20032;-66
2022/01/19 07:06:56;;;;;;;25.98;9.50;;;1.00;97.40;;;;;;5075353;28;20419;-66
2022/01/19 07:09:22;;;;;;;28.23;10.50;;;0.90;97.30;;;;;;5056841;28;20473;-65
2022/01/19 07:11:48;;;;;;;24.60;9.93;;;0.90;97.60;;;;;;5075650;28;20108;-66
2022/01/19 07:14:14;;;;;;;21.05;9.60;;;1.00;98.00;;;;;;5074858;28;20373;-66
2022/01/19 07:16:40;;;;;;;24.10;9.40;;;1.00;98.20;;;;;;5075163;28;20135;-65
2022/01/19 07:19:06;;;;;;;19.55;9.18;;;1.00;98.10;;;;;;5074908;28;20029;-65
2022/01/19 07:21:32;;;;;;;25.33;9.63;;;1.00;98.60;;;;;;5074521;28;20032;-66
2022/01/19 07:23:57;;;;;;;21.27;8.05;;;1.00;98.50;;;;;;5074738;28;20035;-66
2022/01/19 07:26:23;;;;;;;23.17;8.93;;;1.00;98.40;;;;;;5074520;28;20393;-65
2022/01/19 07:28:49;;;;;;;18.45;8.55;;;1.00;98.40;;;;;;5074903;28;20024;-66
2022/01/19 07:31:15;;;;;;;31.30;9.88;;;1.10;98.70;;;;;;5074369;28;20054;-66
2022/01/19 07:33:41;;;;;;;30.85;10.30;;;1.10;98.50;;;;;;5056863;28;20020;-66
2022/01/19 07:36:07;;;;;;;28.88;10.18;;;1.10;98.10;;;;;;5074671;28;20028;-66
2022/01/19 07:38:32;;;;;;;28.58;9.95;;;1.20;98.40;;;;;;5074573;28;20032;-66
2022/01/19 07:40:58;;;;;;;25.30;10.30;;;1.20;98.10;;;;;;5055439;28;20024;-66
2022/01/19 07:43:23;;;;;;;35.55;10.07;;;1.20;97.90;;;;;;5074224;28;20020;-65
2022/01/19 07:45:49;;;;;;;20.88;9.27;;;1.20;98.10;;;;;;5056722;28;20032;-66
2022/01/19 07:48:16;;;;;;;22.10;8.65;;;1.20;97.90;;;;;;5074056;28;20024;-66
2022/01/19 07:50:41;;;;;;;23.38;9.43;;;1.20;97.60;;;;;;5074652;28;20093;-66
2022/01/19 07:53:07;;;;;;;31.20;9.40;;;1.10;97.30;;;;;;5074646;28;20453;-66
2022/01/19 07:55:33;;;;;;;27.17;9.95;;;1.20;97.50;;;;;;5073664;28;20492;-66
2022/01/19 07:57:59;;;;;;;26.20;9.07;;;1.20;97.20;;;;;;5074517;28;20029;-66
2022/01/19 08:00:25;;;;;;;33.05;8.98;;;1.20;97.10;;;;;;5073932;28;20039;-66
2022/01/19 08:02:50;;;;;;;32.65;10.40;;;1.20;97.20;;;;;;5074350;28;20028;-66
2022/01/19 08:05:17;;;;;;;22.02;8.52;;;1.20;97.50;;;;;;5073901;28;20116;-63
2022/01/19 08:07:43;;;;;;;31.48;9.20;;;1.30;97.80;;;;;;5056195;28;20405;-67
2022/01/19 08:10:11;;;;;;;27.77;9.15;;;1.50;97.80;;;;;;5074401;28;20218;-66
2022/01/19 08:12:37;;;;;;;27.48;8.98;;;1.60;97.70;;;;;;5073749;28;20025;-67
2022/01/19 08:15:04;;;;;;;29.17;9.18;;;1.80;97.10;;;;;;5074246;28;20111;-66
2022/01/19 08:17:30;;;;;;;33.92;9.10;;;1.80;96.20;;;;;;5055594;28;20462;-66
2022/01/19 08:19:56;;;;;;;36.38;8.95;;;1.90;95.30;;;;;;5073897;28;20469;-66
2022/01/19 08:22:23;;;;;;;40.25;9.60;;;2.00;95.00;;;;;;5055328;28;20025;-66
2022/01/19 08:24:49;;;;;;;35.25;9.40;;;2.10;94.40;;;;;;5074137;28;20040;-66
2022/01/19 08:27:15;;;;;;;29.98;8.05;;;2.10;94.00;;;;;;5073478;28;20040;-65
2022/01/19 08:29:40;;;;;;;24.05;7.93;;;2.10;93.60;;;;;;5073857;28;20055;-67
2022/01/19 08:32:07;;;;;;;22.70;8.35;;;2.20;93.80;;;;;;5073805;28;20028;-66
2022/01/19 08:34:33;;;;;;;25.73;8.18;;;2.30;93.40;;;;;;5073321;28;20047;-66
2022/01/19 08:37:00;;;;;;;17.90;6.88;;;2.30;93.20;;;;;;5055641;28;20028;-67
2022/01/19 08:39:26;;;;;;;34.63;8.85;;;2.30;92.90;;;;;;5072836;28;20071;-66
2022/01/19 08:41:53;;;;;;;32.78;9.85;;;2.30;92.50;;;;;;5073655;28;20418;-67
2022/01/19 08:44:21;;;;;;;20.75;7.70;;;2.40;92.20;;;;;;5073098;28;20035;-65
2022/01/19 08:46:47;;;;;;;18.58;8.10;;;2.40;91.90;;;;;;5073566;28;20036;-66
2022/01/19 08:49:13;;;;;;;19.27;7.82;;;2.30;92.00;;;;;;5073247;28;20362;-66
2022/01/19 08:51:39;;;;;;;20.52;7.93;;;2.40;92.10;;;;;;5054634;28;20476;-65
2022/01/19 08:54:04;;;;;;;26.58;8.18;;;2.40;92.00;;;;;;5073142;28;20103;-65
2022/01/19 08:56:31;;;;;;;25.23;8.52;;;2.40;92.00;;;;;;5072431;28;20056;-65
2022/01/19 08:58:56;;;;;;;33.03;9.32;;;2.40;91.70;;;;;;5073072;28;20370;-66
2022/01/19 09:01:23;;;;;;;24.80;8.75;;;2.40;91.70;;;;;;5072726;28;20035;-65
2022/01/19 09:03:49;;;;;;;25.67;8.77;;;2.40;91.80;;;;;;5073032;28;20032;-65
2022/01/19 09:06:14;;;;;;;27.30;9.75;;;2.40;91.80;;;;;;5073245;28;20059;-66
2022/01/19 09:08:40;;;;;;;23.45;8.55;;;2.30;91.90;;;;;;5072742;28;20059;-66
2022/01/19 09:11:06;;;;;;;21.23;7.88;;;2.40;91.90;;;;;;5073295;28;20051;-67
2022/01/19 09:13:33;;;;;;;21.85;8.65;;;2.40;91.90;;;;;;5054762;28;20111;-65
2022/01/19 09:15:59;;;;;;;27.80;8.88;;;2.40;92.00;;;;;;5072983;28;20032;-66
2022/01/19 09:18:25;;;;;;;30.92;8.75;;;2.40;91.80;;;;;;5072717;28;20040;-66
2022/01/19 09:20:51;;;;;;;29.83;8.60;;;2.50;91.70;;;;;;5072874;28;20103;-66
2022/01/19 09:23:17;;;;;;;20.77;8.15;;;2.50;91.70;;;;;;5073025;28;20028;-66
2022/01/19 09:25:43;;;;;;;23.50;8.65;;;2.50;91.70;;;;;;5072837;28;20100;-65
2022/01/19 09:28:09;;;;;;;20.13;7.53;;;2.60;91.70;;;;;;5072571;28;20059;-66
2022/01/19 09:30:36;;;;;;;23.00;8.25;;;2.70;91.50;;;;;;5072287;28;20039;-65
2022/01/19 09:33:19;;;;;;;28.17;7.65;;;2.70;91.30;;;;;;5054868;28;20055;-66
2022/01/19 09:38:28;;;;;;;17.85;7.50;;;2.80;90.90;;;;;;5072204;28;20031;-66
2022/01/19 09:40:54;;;;;;;21.50;7.65;;;2.80;90.90;;;;;;5072636;28;20033;-65
2022/01/19 09:43:23;;;;;;;19.75;7.60;;;2.90;90.80;;;;;;5071997;28;20029;-66
2022/01/19 09:45:50;;;;;;;19.42;6.68;;;2.90;90.50;;;;;;5072286;28;20110;-66
2022/01/19 09:48:16;;;;;;;18.90;7.43;;;2.90;90.80;;;;;;5072792;28;20050;-66
2022/01/19 09:50:41;;;;;;;23.77;8.15;;;3.00;90.80;;;;;;5054309;28;20392;-66
2022/01/19 09:53:07;;;;;;;18.95;7.07;;;3.10;90.30;;;;;;5072215;28;20024;-66
2022/01/19 09:55:35;;;;;;;25.85;7.80;;;3.20;90.00;;;;;;5071558;28;20058;-65
2022/01/19 09:58:01;;;;;;;26.30;8.23;;;3.40;89.70;;;;;;5072118;28;20528;-66
2022/01/19 10:00:27;;;;;;;18.42;7.57;;;3.50;89.90;;;;;;5071536;28;20016;-65
2022/01/19 10:03:17;;;;;;;23.33;7.78;;;3.60;90.20;;;;;;5072007;28;20096;-66
2022/01/19 10:06:10;;;;;;;23.58;7.43;;;3.80;89.40;;;;;;5071585;28;20024;-65
2022/01/19 10:08:42;;;;;;;17.40;7.15;;;4.00;87.90;;;;;;5071505;28;20033;-66
2022/01/19 10:11:18;;;;;;;21.20;6.85;;;4.20;87.60;;;;;;5072273;28;20025;-66
2022/01/19 10:19:27;;;;;;;18.88;6.10;;;4.80;83.90;;;;;;5061666;28;20071;-66
2022/01/19 10:22:15;;;;;;;16.25;6.22;;;5.00;82.90;;;;;;5072476;28;20036;-66
2022/01/19 10:24:52;;;;;;;20.58;6.35;;;5.20;81.90;;;;;;5071512;28;20381;-66
2022/01/19 10:27:35;;;;;;;18.40;6.07;;;5.30;81.70;;;;;;5072124;28;20442;-67
2022/01/19 10:30:03;;;;;;;15.15;5.82;;;5.50;81.10;;;;;;5072327;28;20048;-67
2022/01/19 10:32:36;;;;;;;15.90;6.40;;;5.60;80.30;;;;;;5071555;28;20473;-67
2022/01/19 10:35:19;;;;;;;14.63;5.88;;;5.80;78.30;;;;;;5072116;28;20025;-66
2022/01/19 10:37:48;;;;;;;13.63;6.20;;;5.90;77.00;;;;;;5071357;28;20032;-67
2022/01/19 10:40:19;;;;;;;13.63;6.20;;;6.00;76.10;;;;;;5072028;28;20369;-67
2022/01/19 10:42:47;;;;;;;12.55;5.68;;;6.10;74.00;;;;;;5071428;28;20027;-66
2022/01/19 10:45:14;;;;;;;21.13;6.38;;;6.20;73.60;;;;;;5071724;28;20103;-67
2022/01/19 10:47:39;;;;;;;18.33;7.38;;;6.30;72.70;;;;;;5071201;28;20120;-66
2022/01/19 10:50:06;;;;;;;17.50;7.47;;;6.30;72.20;;;;;;5071987;28;20066;-66
2022/01/19 10:52:34;;;;;;;16.15;7.15;;;6.30;72.40;;;;;;5071426;28;20067;-66
2022/01/19 10:55:04;;;;;;;11.13;6.25;;;6.40;72.20;;;;;;5071632;28;20090;-67
2022/01/19 10:57:32;;;;;;;15.00;6.28;;;6.50;72.50;;;;;;5071027;28;20532;-67
2022/01/19 11:00:16;;;;;;;16.67;6.22;;;6.50;72.30;;;;;;5071520;28;20025;-67
2022/01/19 11:02:45;;;;;;;17.92;7.38;;;6.50;71.70;;;;;;5053295;28;20024;-67
2022/01/19 11:05:11;;;;;;;20.52;6.65;;;6.60;71.50;;;;;;5071687;28;20032;-67
2022/01/19 11:07:37;;;;;;;14.60;6.75;;;6.60;71.50;;;;;;5070807;28;20533;-67
2022/01/19 11:10:16;;;;;;;20.92;7.45;;;6.70;71.90;;;;;;5053865;28;20382;-67
2022/01/19 11:12:47;;;;;;;21.30;7.63;;;6.70;71.60;;;;;;5071288;28;20063;-67
2022/01/19 11:15:16;;;;;;;15.23;6.50;;;6.80;70.80;;;;;;5072826;28;20025;-67
2022/01/19 11:17:42;;;;;;;18.60;8.02;;;6.80;69.90;;;;;;5074593;28;20174;-65
2022/01/19 11:20:12;;;;;;;17.85;6.95;;;6.90;69.80;;;;;;5075196;28;20473;-67
2022/01/19 11:22:59;;;;;;;15.50;7.00;;;7.00;69.30;;;;;;5074698;28;20024;-67
2022/01/19 11:25:51;;;;;;;16.55;7.53;;;7.10;69.00;;;;;;5075323;28;20055;-67
2022/01/19 11:28:26;;;;;;;;;;;7.10;69.20;;;;;;5075497;28;20024;-67
2022/01/19 11:30:53;;;;;;;17.77;6.63;;;7.20;68.70;;;;;;5075140;28;19941;-66
2022/01/19 11:33:26;;;;;;;15.52;7.18;;;7.30;68.90;;;;;;5074946;28;20109;-66
2022/01/19 11:35:58;;;;;;;21.38;7.18;;;7.30;68.40;;;;;;5074133;28;20031;-66
2022/01/19 11:38:48;;;;;;;23.17;7.30;;;7.40;67.80;;;;;;5074883;28;20024;-66
2022/01/19 11:41:14;;;;;;;17.60;8.13;;;7.40;67.10;;;;;;5074702;28;20028;-67
2022/01/19 11:43:58;;;;;;;15.45;7.07;;;7.50;66.80;;;;;;5074449;28;20032;-66
2022/01/19 11:46:45;;;;;;;17.02;6.38;;;7.40;65.30;;;;;;5056421;28;20032;-66
2022/01/19 11:49:15;;;;;;;16.50;8.45;;;7.30;66.00;;;;;;5074964;28;20082;-67
2022/01/19 11:51:47;;;;;;;15.55;8.30;;;7.30;66.20;;;;;;5074029;28;20024;-67
2022/01/19 11:54:17;;;;;;;16.27;6.88;;;7.30;66.40;;;;;;5074518;28;20024;-67
2022/01/19 11:57:09;;;;;;;17.33;7.43;;;7.30;66.40;;;;;;5074044;28;20515;-67
2022/01/19 11:59:44;;;;;;;16.77;7.30;;;7.20;66.60;;;;;;5074076;28;20412;-67
2022/01/19 12:02:24;;;;;;;18.77;7.20;;;7.30;66.80;;;;;;5074383;28;20028;-66
2022/01/19 12:05:17;;;;;;;16.63;7.47;;;7.30;66.40;;;;;;5073973;28;20482;-66
2022/01/19 12:08:00;;;;;;;18.75;7.13;;;7.30;65.80;;;;;;5067234;28;20036;-65
2022/01/19 12:10:37;;;;;;;16.52;7.60;;;7.30;66.30;;;;;;5074292;28;20051;-66
2022/01/19 12:16:15;;;;;;;17.13;8.07;;;7.40;66.50;;;;;;5074324;28;20050;-66
2022/01/19 12:19:04;;;;;;;13.90;7.55;;;7.50;66.10;;;;;;5073731;28;20021;-66
2022/01/19 12:21:44;;;;;;;19.92;8.18;;;7.50;65.90;;;;;;5074253;28;20028;-66
2022/01/19 12:24:29;;;;;;;14.45;7.63;;;7.50;65.70;;;;;;5074029;28;20039;-67
2022/01/19 12:26:57;;;;;;;18.92;7.82;;;7.50;66.10;;;;;;5072727;28;20161;-66
2022/01/19 12:29:36;;;;;;;13.10;7.57;;;7.60;66.80;;;;;;5073897;28;20024;-66
2022/01/19 12:32:15;;;;;;;13.75;7.32;;;7.60;66.30;;;;;;5073692;28;20415;-65
2022/01/19 12:34:45;;;;;;;18.95;8.65;;;7.60;66.00;;;;;;5073360;28;20091;-66
2022/01/19 12:37:27;;;;;;;16.10;7.47;;;7.70;65.70;;;;;;5055484;28;20037;-66
2022/01/19 12:39:53;;;;;;;;;;;7.70;65.50;;;;;;5073906;28;20082;-66
2022/01/19 12:42:24;;;;;;;21.67;8.07;;;7.80;65.80;;;;;;5073528;28;19905;-66
2022/01/19 12:44:55;;;;;;;19.75;8.43;;;7.80;65.30;;;;;;5072964;28;20063;-66
2022/01/19 12:47:41;;;;;;;16.35;7.97;;;7.80;65.50;;;;;;5055898;28;20036;-66
2022/01/19 12:50:07;;;;;;;23.98;8.93;;;7.80;65.90;;;;;;5072832;28;20119;-66
2022/01/19 12:52:34;;;;;;;14.65;7.57;;;7.90;66.30;;;;;;5073079;28;20108;-66
2022/01/19 12:55:19;;;;;;;16.20;7.80;;;7.90;66.00;;;;;;5072644;28;20393;-66
2022/01/19 12:57:46;;;;;;;17.38;7.75;;;7.90;66.10;;;;;;5072813;28;20036;-66
2022/01/19 13:00:21;;;;;;;16.17;7.65;;;8.00;66.20;;;;;;5073737;28;20385;-66
2022/01/19 13:02:47;;;;;;;23.80;8.25;;;8.00;66.30;;;;;;5072857;28;20052;-66
2022/01/19 13:05:18;;;;;;;23.30;8.68;;;8.00;65.90;;;;;;5072939;28;20052;-66
2022/01/19 13:07:55;;;;;;;18.35;7.88;;;7.90;66.10;;;;;;5072632;28;20116;-66
2022/01/19 13:10:38;;;;;;;19.75;8.15;;;7.80;65.90;;;;;;5073372;28;20056;-66
2022/01/19 13:13:39;;;;;;;17.42;8.15;;;7.70;66.50;;;;;;5073186;28;20401;-67
2022/01/19 13:16:00;;;;;;;15.35;8.00;;;7.60;66.90;;;;;;5069134;28;20032;-65
2022/01/19 13:18:33;;;;;;;14.20;7.35;;;7.50;67.30;;;;;;5072989;28;20032;-66
2022/01/19 13:21:03;;;;;;;20.48;8.30;;;7.50;67.60;;;;;;5072410;28;20082;-66
2022/01/19 13:23:31;;;;;;;18.17;8.45;;;7.50;68.00;;;;;;5072877;28;20033;-66
2022/01/19 13:25:59;;;;;;;21.10;8.05;;;7.40;67.90;;;;;;5072241;28;20376;-66
2022/01/19 13:28:27;;;;;;;17.88;7.90;;;7.30;67.90;;;;;;5073054;28;20114;-66
2022/01/19 13:30:57;;;;;;;24.30;8.35;;;7.20;68.50;;;;;;5071863;28;20017;-67
2022/01/19 13:33:24;;;;;;;15.18;7.30;;;7.10;69.10;;;;;;5072571;28;20059;-66
2022/01/19 13:36:03;;;;;;;18.15;8.43;;;7.00;69.70;;;;;;5072114;28;20121;-66
2022/01/19 13:38:29;;;;;;;18.65;8.60;;;6.90;70.30;;;;;;5071573;28;20056;-66
2022/01/19 13:41:03;;;;;;;20.15;8.57;;;6.90;70.60;;;;;;5072073;28;20028;-66
2022/01/19 13:43:33;;;;;;;15.73;8.02;;;6.80;70.80;;;;;;5072424;28;20032;-66
2022/01/19 13:46:12;;;;;;;21.88;8.48;;;6.70;71.20;;;;;;5071869;28;20024;-66
2022/01/19 13:48:39;;;;;;;18.92;8.20;;;6.60;72.00;;;;;;5072022;28;20036;-67
2022/01/19 13:51:10;;;;;;;17.98;8.43;;;6.60;72.60;;;;;;5072302;28;20127;-66
2022/01/19 13:53:49;;;;;;;15.30;7.63;;;6.60;72.30;;;;;;5072369;28;20107;-66
2022/01/19 13:56:25;;;;;;;19.23;8.27;;;6.50;72.50;;;;;;5071927;28;20051;-66
2022/01/19 13:59:13;;;;;;;14.73;7.40;;;6.40;72.80;;;;;;5071803;28;20052;-66
2022/01/19 14:01:56;;;;;;;20.15;8.57;;;6.40;73.30;;;;;;5071897;28;20461;-66
2022/01/19 14:04:24;;;;;;;22.27;8.43;;;6.30;73.70;;;;;;5054504;28;20024;-66
2022/01/19 14:06:50;;;;;;;22.95;8.60;;;6.30;73.80;;;;;;5071475;28;20569;-66
2022/01/19 14:09:36;;;;;;;21.20;8.65;;;6.30;74.20;;;;;;5072335;28;20021;-65
2022/01/19 14:12:03;;;;;;;18.85;7.68;;;6.20;74.30;;;;;;5071815;28;20059;-66
2022/01/19 14:14:36;;;;;;;18.55;7.70;;;6.20;74.20;;;;;;5072390;28;20024;-66
2022/01/19 14:17:07;;;;;;;16.98;8.50;;;6.20;74.10;;;;;;5071633;28;20033;-66
2022/01/19 14:19:48;;;;;;;21.33;8.25;;;6.10;74.10;;;;;;5071927;28;20052;-66
2022/01/19 14:22:19;;;;;;;22.42;8.02;;;6.10;74.60;;;;;;5072109;28;20027;-66
2022/01/19 14:24:54;;;;;;;22.60;8.65;;;6.10;74.90;;;;;;5071848;28;20025;-66
2022/01/19 14:27:26;;;;;;;18.98;8.70;;;6.10;75.00;;;;;;5072148;28;20482;-66
2022/01/19 14:29:58;;;;;;;17.33;7.93;;;6.00;75.00;;;;;;5071107;28;20481;-66
2022/01/19 14:32:42;;;;;;;17.30;7.68;;;6.00;75.20;;;;;;5072053;28;20039;-65
2022/01/19 14:35:23;;;;;;;17.85;8.02;;;6.00;75.30;;;;;;5072011;28;20417;-66
2022/01/19 14:37:57;;;;;;;16.10;7.88;;;6.00;75.50;;;;;;5071405;28;20075;-66